메인 페이지
METAR-TAF:

METAR-TAF

공항 :

만달레이 국제공항

만달레이, 미얀마

위도: 21-59N, 경도: 096-06E, 고도: 74m

현재 날씨관측

예보는 2 시간 27분 전, 18:30시(UTC)에 발표되었습니다.
2kt
온도 27°C
습도 48%
기압 1004 hPa
시정: 5000m
고도 2000ft 상공 구름 조금
연무

METAR: VYMD 251830Z 17002KT 5000 HZ FEW020 27/15 Q1004

시각: 03:27 (20:57 UTC)

예보

예보는 3 시간 57분 전, 17:00시(UTC)에 발표되었습니다.
예보 대상 시간: 25일 18시부터 26일 18시까지 (UTC)
북서5kt
시정: 6000m
고도 2000ft 상공 구름 보통
일시적
25일 18시부터 25일 24시까지 (UTC)
5kt
시정: 5000m
연무

TAF: VYMD 251700Z 2518/2618 32005KT 6000 SCT020 TEMPO 2518/2524 35005KT 5000 HZ

4,000개 이상의 공항 관측 자료 및 예보 (METAR 및 TAF 보고).

지도상에서 검색 가능한 기상관측소가 노란 점과 빨간 점으로 표시되어 있습니다.

기상관측소 명을 보려면 표시 위로 마우스를 이동하세요.

날씨 관측과 예보를 보려면 클릭하세요.

지도 변경 : 확대하려면 엑스 표시가 있는 녹색 버튼, 축소하려면 빼기 표시가 있는 녹색 버튼, 다음 페이지의 지도를 보려면 녹색 화살표를 클릭하세요.


METAR-TAF: